Time;durP1;ratioP1;P1;durP2;ratioP2;P2;SDS_P1;SDS_P2;PMS_P1;PMS_P2;Temp;Humidity;BMP_temperature;BMP_pressure;BME280_temperature;BME280_humidity;BME280_pressure;Samples;Min_cycle;Max_cycle;Signal;HPM_P1;HPM_P2
2022/08/08 00:01:21;;;;;;;1.17;0.77;;;18.40;45.60;;;;;;4187681;28;20218;-73
2022/08/08 00:03:29;;;;;;;0.63;0.63;;;18.40;45.70;;;;;;4189690;28;20254;-73
2022/08/08 00:05:37;;;;;;;1.07;0.70;;;18.40;46.00;;;;;;4185620;28;20502;-74
2022/08/08 00:07:48;;;;;;;0.60;0.60;;;18.30;45.90;;;;;;4190868;28;20641;-74
2022/08/08 00:10:01;;;;;;;1.07;0.63;;;18.30;46.20;;;;;;4185392;28;20706;-74
2022/08/08 00:12:09;;;;;;;1.70;0.70;;;18.30;46.30;;;;;;4182866;28;20238;-73
2022/08/08 00:14:23;;;;;;;1.37;0.77;;;18.20;46.40;;;;;;4189327;28;20747;-73
2022/08/08 00:16:29;;;;;;;1.03;0.63;;;18.20;46.40;;;;;;4186103;28;20695;-73
2022/08/08 00:18:41;;;;;;;1.07;0.70;;;18.20;46.40;;;;;;4184651;28;20209;-74
2022/08/08 00:20:50;;;;;;;0.87;0.60;;;18.20;46.70;;;;;;4187040;28;20288;-74
2022/08/08 00:22:56;;;;;;;0.93;0.60;;;18.10;46.60;;;;;;4184995;28;20230;-73
2022/08/08 00:25:01;;;;;;;0.80;0.80;;;18.10;46.80;;;;;;4184459;28;20656;-74
2022/08/08 00:27:07;;;;;;;0.67;0.60;;;18.10;46.80;;;;;;4186126;28;20289;-73
2022/08/08 00:29:14;;;;;;;1.23;0.80;;;18.00;47.30;;;;;;4184069;28;20579;-73
2022/08/08 00:31:34;;;;;;;1.03;0.60;;;18.00;47.20;;;;;;4184884;28;20240;-73
2022/08/08 00:33:45;;;;;;;0.47;0.47;;;18.00;47.30;;;;;;4183891;28;20218;-73
2022/08/08 00:35:50;;;;;;;0.93;0.80;;;18.00;47.50;;;;;;4182275;28;20678;-73
2022/08/08 00:38:05;;;;;;;1.17;0.70;;;18.00;47.60;;;;;;4187950;28;20215;-73
2022/08/08 00:40:41;;;;;;;0.87;0.70;;;17.90;47.80;;;;;;4187164;28;20207;-73
2022/08/08 00:43:09;;;;;;;2.10;1.00;;;17.90;47.80;;;;;;4188712;28;20238;-73
2022/08/08 00:45:39;;;;;;;1.07;0.60;;;17.90;47.90;;;;;;4188726;28;20321;-73
2022/08/08 00:48:11;;;;;;;1.40;1.00;;;17.90;48.30;;;;;;4189863;28;20213;-73
2022/08/08 00:50:56;;;;;;;1.20;0.60;;;17.80;48.20;;;;;;4187191;28;20202;-73
2022/08/08 00:53:05;;;;;;;2.10;0.83;;;17.80;49.00;;;;;;4184792;28;20335;-73
2022/08/08 00:55:50;;;;;;;1.50;0.83;;;17.80;48.50;;;;;;4182854;28;20212;-73
2022/08/08 00:58:39;;;;;;;1.73;0.90;;;17.70;48.60;;;;;;4156969;28;20653;-73
2022/08/08 01:00:48;;;;;;;1.00;0.70;;;17.70;49.70;;;;;;4178609;28;20207;-73
2022/08/08 01:03:30;;;;;;;0.80;0.80;;;17.70;48.90;;;;;;4178832;28;20293;-74
2022/08/08 01:06:30;;;;;;;0.90;0.60;;;17.70;49.20;;;;;;4185402;28;20265;-74
2022/08/08 01:09:02;;;;;;;1.87;0.70;;;17.60;49.50;;;;;;4186310;28;20214;-73
2022/08/08 01:11:56;;;;;;;0.87;0.70;;;17.60;49.80;;;;;;4182459;28;20700;-73
2022/08/08 01:14:28;;;;;;;0.63;0.60;;;17.50;50.30;;;;;;4181008;28;20220;-73
2022/08/08 01:16:54;;;;;;;0.70;0.70;;;17.50;50.30;;;;;;4108136;28;20214;-73
2022/08/08 01:20:02;;;;;;;0.90;0.60;;;17.50;50.40;;;;;;4185787;28;20211;-74
2022/08/08 01:22:38;;;;;;;2.07;1.00;;;17.40;50.80;;;;;;4186648;28;20229;-73
2022/08/08 01:25:24;;;;;;;0.77;0.70;;;17.40;51.00;;;;;;4185166;28;20228;-73
2022/08/08 01:27:50;;;;;;;1.67;0.70;;;17.40;51.00;;;;;;4133136;28;20231;-73
2022/08/08 01:30:35;;;;;;;0.93;0.80;;;17.40;51.40;;;;;;4177930;28;20737;-73
2022/08/08 01:33:12;;;;;;;2.20;0.83;;;17.30;51.40;;;;;;4185734;28;20230;-74
2022/08/08 01:35:45;;;;;;;1.53;0.80;;;17.30;51.40;;;;;;4181484;28;20300;-73
2022/08/08 01:38:07;;;;;;;1.30;0.70;;;17.20;51.50;;;;;;4182010;28;20646;-73
2022/08/08 01:40:20;;;;;;;0.60;0.60;;;17.20;52.00;;;;;;4182716;28;20278;-73
2022/08/08 01:42:30;;;;;;;1.63;0.80;;;17.20;51.90;;;;;;4186445;28;20236;-73
2022/08/08 01:44:58;;;;;;;2.07;0.80;;;17.20;52.40;;;;;;4185904;28;20230;-74
2022/08/08 01:47:13;;;;;;;0.90;0.80;;;17.10;52.40;;;;;;4185927;28;20229;-73
2022/08/08 01:49:21;;;;;;;0.90;0.77;;;17.10;52.70;;;;;;4183743;28;20206;-73
2022/08/08 01:51:39;;;;;;;1.10;0.80;;;17.10;53.10;;;;;;4181533;28;20190;-73
2022/08/08 01:53:48;;;;;;;0.80;0.73;;;17.00;53.00;;;;;;4190420;28;20259;-74
2022/08/08 01:56:01;;;;;;;2.70;0.80;;;17.00;53.10;;;;;;4187189;28;20213;-73
2022/08/08 01:58:20;;;;;;;0.90;0.80;;;17.00;54.10;;;;;;4183037;28;20652;-74
2022/08/08 02:00:27;;;;;;;3.90;0.90;;;16.90;53.90;;;;;;4185364;28;20214;-73
2022/08/08 02:02:43;;;;;;;1.60;1.00;;;16.90;54.20;;;;;;4177917;28;20279;-74
2022/08/08 02:04:56;;;;;;;1.10;0.80;;;16.90;54.60;;;;;;4176055;28;20317;-74
2022/08/08 02:07:04;;;;;;;1.10;0.70;;;16.90;54.80;;;;;;4181737;28;20247;-74
2022/08/08 02:09:15;;;;;;;0.70;0.70;;;16.90;55.10;;;;;;4185959;28;20258;-74
2022/08/08 02:11:28;;;;;;;2.77;1.23;;;16.80;54.80;;;;;;4183124;28;20213;-74
2022/08/08 02:13:35;;;;;;;1.23;0.90;;;16.80;55.40;;;;;;4185517;28;20230;-73
2022/08/08 02:15:42;;;;;;;1.17;0.80;;;16.80;55.40;;;;;;4181987;28;20289;-74
2022/08/08 02:17:53;;;;;;;1.47;1.00;;;16.70;55.50;;;;;;4184572;28;20201;-74
2022/08/08 02:20:00;;;;;;;1.00;0.90;;;16.70;55.80;;;;;;4187246;28;20204;-74
2022/08/08 02:24:36;;;;;;;0.97;0.90;;;16.70;56.70;;;;;;4187534;28;20571;-74
2022/08/08 02:26:45;;;;;;;1.73;1.00;;;16.60;56.70;;;;;;4186350;28;20286;-74
2022/08/08 02:29:00;;;;;;;1.07;0.80;;;16.60;57.60;;;;;;4185396;28;20589;-74
2022/08/08 02:31:08;;;;;;;1.30;0.93;;;16.60;58.80;;;;;;4181237;28;20216;-74
2022/08/08 02:33:24;;;;;;;1.00;0.90;;;16.50;58.70;;;;;;4177264;28;20239;-74
2022/08/08 02:35:53;;;;;;;1.67;0.80;;;16.50;58.90;;;;;;4184479;28;20208;-74
2022/08/08 02:38:25;;;;;;;1.77;0.83;;;16.50;60.30;;;;;;4187761;28;20223;-74
2022/08/08 02:40:37;;;;;;;1.70;1.10;;;16.40;60.60;;;;;;4184632;28;20294;-73
2022/08/08 02:43:24;;;;;;;2.60;1.07;;;16.40;62.00;;;;;;4181006;28;20240;-73
2022/08/08 02:45:51;;;;;;;1.20;1.10;;;16.40;62.50;;;;;;4151031;28;20252;-73
2022/08/08 02:48:35;;;;;;;1.80;1.30;;;16.30;61.70;;;;;;4185222;28;20301;-73
2022/08/08 02:51:16;;;;;;;1.93;1.10;;;16.30;62.60;;;;;;4177420;28;20217;-73
2022/08/08 02:53:40;;;;;;;1.27;1.03;;;16.30;63.30;;;;;;4166552;28;20267;-74
2022/08/08 02:56:14;;;;;;;1.43;0.90;;;16.20;63.30;;;;;;4183601;28;20241;-74
2022/08/08 02:59:00;;;;;;;1.20;1.00;;;16.20;64.80;;;;;;4179918;28;20208;-74
2022/08/08 03:01:50;;;;;;;1.10;0.97;;;16.20;65.20;;;;;;4187673;28;20214;-74
2022/08/08 03:04:24;;;;;;;1.00;1.00;;;16.10;67.00;;;;;;4132009;28;20257;-74
2022/08/08 03:06:55;;;;;;;1.77;1.03;;;16.10;68.40;;;;;;4180617;28;20298;-74
2022/08/08 03:09:48;;;;;;;1.00;0.90;;;16.10;71.00;;;;;;4185572;28;20214;-74
2022/08/08 03:12:22;;;;;;;1.03;0.93;;;16.00;72.90;;;;;;4168844;28;20666;-73
2022/08/08 03:14:50;;;;;;;1.53;0.87;;;16.00;72.10;;;;;;4183152;28;20221;-74
2022/08/08 03:16:57;;;;;;;1.70;1.10;;;15.90;73.70;;;;;;4174652;28;20597;-73
2022/08/08 03:19:13;;;;;;;1.20;1.10;;;15.90;74.10;;;;;;4185618;28;20746;-74
2022/08/08 03:21:14;;;;;;;1.70;1.17;;;15.90;74.50;;;;;;4188382;28;20701;-73
2022/08/08 03:23:18;;;;;;;1.07;0.97;;;15.90;74.10;;;;;;4185919;28;20231;-74
2022/08/08 03:25:23;;;;;;;1.13;1.00;;;15.90;74.00;;;;;;4184662;28;20307;-74
2022/08/08 03:27:32;;;;;;;1.63;0.80;;;15.90;76.40;;;;;;4181803;28;20302;-74
2022/08/08 03:29:39;;;;;;;1.07;1.00;;;15.90;76.30;;;;;;4187571;28;20211;-73
2022/08/08 03:34:01;;;;;;;1.17;0.90;;;15.80;80.50;;;;;;4186286;28;20222;-74
2022/08/08 03:36:03;;;;;;;2.00;1.10;;;15.80;77.60;;;;;;4190778;28;20470;-73
2022/08/08 03:38:05;;;;;;;1.33;1.07;;;15.80;77.20;;;;;;4189507;28;20249;-73
2022/08/08 03:40:09;;;;;;;1.10;0.90;;;15.70;80.20;;;;;;4188601;28;20294;-74
2022/08/08 03:42:15;;;;;;;2.27;1.03;;;15.70;79.40;;;;;;4184803;28;20738;-74
2022/08/08 03:44:17;;;;;;;1.17;1.00;;;15.70;79.50;;;;;;4180376;28;20199;-74
2022/08/08 03:46:19;;;;;;;1.83;0.90;;;15.70;81.50;;;;;;4182200;28;20264;-73
2022/08/08 03:48:21;;;;;;;1.63;0.90;;;15.70;78.20;;;;;;4187648;28;20807;-73
2022/08/08 03:50:23;;;;;;;2.30;1.10;;;15.70;80.20;;;;;;4187510;28;20243;-73
2022/08/08 03:52:25;;;;;;;1.80;1.07;;;15.60;79.90;;;;;;4185963;28;20221;-73
2022/08/08 03:54:27;;;;;;;1.47;1.00;;;15.70;80.60;;;;;;4185008;28;20311;-74
2022/08/08 03:56:34;;;;;;;2.10;1.00;;;15.60;81.00;;;;;;4184355;28;20206;-74
2022/08/08 03:58:36;;;;;;;1.80;1.00;;;15.50;84.70;;;;;;4186518;28;20219;-74
2022/08/08 04:00:38;;;;;;;1.20;1.10;;;15.50;84.10;;;;;;4186871;28;20217;-74
2022/08/08 04:02:40;;;;;;;1.37;0.90;;;15.50;83.40;;;;;;4190843;28;20255;-74
2022/08/08 04:04:42;;;;;;;1.57;1.00;;;15.50;83.20;;;;;;4181659;28;20291;-75
2022/08/08 04:06:55;;;;;;;3.50;1.23;;;15.50;83.30;;;;;;4188477;28;20671;-75
2022/08/08 04:08:58;;;;;;;1.90;0.80;;;15.40;86.30;;;;;;4179218;28;20211;-75
2022/08/08 04:11:02;;;;;;;1.13;1.03;;;15.40;86.70;;;;;;4186152;28;20210;-75
2022/08/08 04:13:06;;;;;;;1.07;0.97;;;15.40;87.00;;;;;;4184895;28;20255;-75
2022/08/08 04:15:09;;;;;;;2.27;1.47;;;15.40;88.60;;;;;;4181284;28;20310;-75
2022/08/08 04:17:10;;;;;;;1.57;1.00;;;15.30;85.90;;;;;;4188777;28;20630;-75
2022/08/08 04:19:12;;;;;;;1.73;1.10;;;15.30;88.30;;;;;;4185099;28;20233;-75
2022/08/08 04:21:14;;;;;;;2.93;1.23;;;15.30;90.50;;;;;;4184555;28;20216;-75
2022/08/08 04:23:16;;;;;;;1.47;1.23;;;15.30;89.50;;;;;;4184841;28;20313;-75
2022/08/08 04:25:18;;;;;;;1.83;1.30;;;15.30;91.50;;;;;;4188842;28;20321;-75
2022/08/08 04:27:20;;;;;;;1.50;1.20;;;15.30;91.70;;;;;;4186237;28;20803;-74
2022/08/08 04:29:23;;;;;;;2.17;1.40;;;15.30;91.70;;;;;;4188014;28;20214;-75
2022/08/08 04:31:25;;;;;;;1.97;1.40;;;15.30;93.40;;;;;;4185054;28;20200;-75
2022/08/08 04:33:27;;;;;;;2.30;1.60;;;15.30;94.20;;;;;;4187781;28;20316;-75
2022/08/08 04:35:30;;;;;;;2.20;1.30;;;15.30;93.60;;;;;;4185188;28;20203;-75
2022/08/08 04:37:32;;;;;;;4.20;1.70;;;15.30;94.20;;;;;;4179003;28;20278;-75
2022/08/08 04:39:33;;;;;;;2.07;1.50;;;15.30;93.90;;;;;;4186108;28;20214;-75
2022/08/08 04:41:35;;;;;;;2.43;1.50;;;15.30;94.10;;;;;;4186991;28;20214;-75
2022/08/08 04:43:37;;;;;;;3.77;1.40;;;15.30;94.00;;;;;;4189084;28;20215;-76
2022/08/08 04:45:40;;;;;;;2.73;1.70;;;15.40;93.60;;;;;;4187038;28;20250;-75
2022/08/08 04:47:42;;;;;;;2.77;1.60;;;15.40;95.20;;;;;;4187775;28;20294;-75
2022/08/08 04:49:44;;;;;;;2.13;1.40;;;15.40;95.70;;;;;;4189906;28;20333;-75
2022/08/08 04:51:46;;;;;;;2.13;1.40;;;15.50;96.90;;;;;;4184096;28;20205;-75
2022/08/08 04:53:48;;;;;;;2.53;1.47;;;15.50;96.60;;;;;;4188013;28;20591;-75
2022/08/08 04:55:50;;;;;;;1.97;1.43;;;15.50;97.20;;;;;;4185265;28;20568;-75
2022/08/08 04:57:52;;;;;;;1.70;1.40;;;15.50;96.90;;;;;;4183996;28;20218;-75
2022/08/08 04:59:54;;;;;;;1.53;1.37;;;15.50;97.10;;;;;;4186350;28;20207;-75
2022/08/08 05:01:57;;;;;;;2.43;1.50;;;15.50;96.60;;;;;;4183228;28;20728;-75
2022/08/08 05:03:59;;;;;;;1.80;1.30;;;15.60;96.30;;;;;;4186302;28;20199;-75
2022/08/08 05:06:01;;;;;;;1.87;1.37;;;15.60;96.00;;;;;;4190195;28;20954;-75
2022/08/08 05:08:03;;;;;;;1.60;1.33;;;15.70;95.10;;;;;;4180077;28;20207;-75
2022/08/08 05:10:06;;;;;;;2.67;1.60;;;15.60;94.90;;;;;;4187055;28;20293;-74
2022/08/08 05:12:08;;;;;;;2.23;1.60;;;15.70;94.40;;;;;;4178364;28;20905;-75
2022/08/08 05:14:11;;;;;;;2.37;1.47;;;15.70;94.00;;;;;;4182339;28;20219;-75
2022/08/08 05:16:13;;;;;;;2.30;1.50;;;15.70;93.70;;;;;;4185258;28;20567;-75
2022/08/08 05:18:16;;;;;;;2.47;1.50;;;15.70;93.70;;;;;;4177982;28;20236;-75
2022/08/08 05:20:18;;;;;;;2.87;1.50;;;15.80;93.40;;;;;;4187058;28;20208;-75
2022/08/08 05:22:20;;;;;;;2.17;1.43;;;15.80;93.10;;;;;;4188384;28;20306;-75
2022/08/08 05:24:22;;;;;;;2.00;1.47;;;15.80;92.60;;;;;;4183317;28;20668;-75
2022/08/08 05:26:24;;;;;;;1.60;1.33;;;15.90;92.70;;;;;;4177901;28;20228;-75
2022/08/08 05:28:26;;;;;;;1.40;1.30;;;15.90;92.60;;;;;;4185433;28;20669;-75
2022/08/08 05:30:28;;;;;;;2.87;1.50;;;15.90;92.60;;;;;;4186097;28;20218;-75
2022/08/08 05:32:30;;;;;;;3.37;1.50;;;15.90;92.90;;;;;;4187001;28;20278;-75
2022/08/08 05:34:37;;;;;;;3.10;1.40;;;16.00;92.20;;;;;;4182023;28;20216;-75
2022/08/08 05:36:39;;;;;;;3.80;1.30;;;16.00;91.70;;;;;;4185479;28;20237;-75
2022/08/08 05:38:47;;;;;;;2.47;1.40;;;16.00;91.30;;;;;;4183262;28;20207;-75
2022/08/08 05:40:51;;;;;;;1.70;1.13;;;16.00;90.60;;;;;;4184097;28;20249;-75
2022/08/08 05:42:59;;;;;;;1.50;1.20;;;16.00;90.90;;;;;;4183048;28;20246;-75
2022/08/08 05:45:02;;;;;;;3.00;1.30;;;16.10;90.30;;;;;;4184886;28;20929;-75
2022/08/08 05:47:05;;;;;;;1.73;1.23;;;16.10;90.30;;;;;;4184105;28;20705;-75
2022/08/08 05:49:08;;;;;;;1.40;1.13;;;16.10;91.10;;;;;;4184373;28;20580;-75
2022/08/08 05:51:11;;;;;;;1.73;1.33;;;16.10;90.30;;;;;;4185274;28;20226;-75
2022/08/08 05:53:13;;;;;;;2.20;1.27;;;16.10;90.60;;;;;;4184932;28;20238;-75
2022/08/08 05:55:15;;;;;;;3.77;1.20;;;16.10;90.40;;;;;;4180985;28;20219;-75
2022/08/08 05:57:18;;;;;;;3.37;1.43;;;16.10;90.90;;;;;;4186763;28;20295;-75
2022/08/08 05:59:22;;;;;;;2.40;1.40;;;16.20;91.00;;;;;;4185824;28;20290;-75
2022/08/08 06:01:26;;;;;;;2.10;1.40;;;16.20;90.90;;;;;;4186041;28;20293;-75
2022/08/08 06:03:30;;;;;;;3.93;2.10;;;16.20;91.10;;;;;;4184242;28;20640;-75
2022/08/08 06:05:34;;;;;;;3.03;2.10;;;16.20;90.90;;;;;;4183251;28;20221;-75
2022/08/08 06:07:40;;;;;;;3.77;2.07;;;16.20;91.10;;;;;;4177517;28;20700;-75
2022/08/08 06:09:42;;;;;;;2.03;1.57;;;16.20;92.30;;;;;;4185296;28;20220;-75
2022/08/08 06:11:45;;;;;;;2.93;1.87;;;16.20;91.80;;;;;;4182240;28;20614;-75
2022/08/08 06:13:48;;;;;;;2.73;1.70;;;16.30;91.70;;;;;;4186590;28;20732;-75
2022/08/08 06:15:53;;;;;;;1.80;1.30;;;16.30;91.40;;;;;;4186238;28;20243;-75
2022/08/08 06:17:57;;;;;;;3.23;1.40;;;16.30;91.40;;;;;;4184755;28;20575;-75
2022/08/08 06:20:01;;;;;;;3.03;1.50;;;16.40;90.70;;;;;;4185116;28;20231;-75
2022/08/08 06:22:03;;;;;;;2.50;1.40;;;16.40;90.60;;;;;;4177744;28;20234;-75
2022/08/08 06:24:06;;;;;;;2.13;1.50;;;16.40;90.30;;;;;;4189960;28;20233;-74
2022/08/08 06:26:11;;;;;;;3.90;1.30;;;16.50;88.80;;;;;;4182366;28;20334;-75
2022/08/08 06:28:18;;;;;;;2.50;1.37;;;16.50;88.70;;;;;;4184133;28;20268;-75
2022/08/08 06:30:19;;;;;;;1.30;1.00;;;16.60;89.30;;;;;;4183125;28;20240;-75
2022/08/08 06:32:28;;;;;;;1.57;1.23;;;16.50;89.50;;;;;;4186852;28;20943;-75
2022/08/08 06:34:36;;;;;;;2.10;1.07;;;16.60;89.70;;;;;;4184833;28;20286;-75
2022/08/08 06:36:39;;;;;;;2.20;1.20;;;16.60;90.10;;;;;;4177018;28;20199;-75
2022/08/08 06:38:46;;;;;;;2.83;1.57;;;16.60;89.40;;;;;;4185842;28;20219;-75
2022/08/08 06:40:52;;;;;;;3.40;1.53;;;16.70;87.40;;;;;;4185511;28;20212;-75
2022/08/08 06:42:56;;;;;;;2.07;1.40;;;16.70;86.60;;;;;;4185888;28;20221;-75
2022/08/08 06:45:00;;;;;;;1.60;1.40;;;16.70;85.90;;;;;;4186848;28;20231;-75
2022/08/08 06:47:02;;;;;;;3.70;1.50;;;16.70;85.70;;;;;;4183789;28;20705;-75
2022/08/08 06:49:04;;;;;;;1.40;1.30;;;16.80;85.80;;;;;;4188070;28;20293;-75
2022/08/08 06:51:06;;;;;;;4.03;1.30;;;16.80;85.10;;;;;;4186482;28;20223;-75
2022/08/08 06:53:09;;;;;;;1.83;1.03;;;16.90;82.40;;;;;;4186489;28;20261;-75
2022/08/08 06:55:11;;;;;;;1.23;1.13;;;16.90;81.60;;;;;;4187305;28;20206;-75
2022/08/08 06:57:14;;;;;;;1.40;1.17;;;16.90;81.40;;;;;;4186754;28;20263;-75
2022/08/08 06:59:16;;;;;;;1.47;1.30;;;17.00;82.10;;;;;;4186370;28;20206;-75
2022/08/08 07:01:19;;;;;;;4.17;1.40;;;17.00;82.30;;;;;;4184873;28;20233;-75
2022/08/08 07:03:32;;;;;;;1.87;1.30;;;16.90;79.70;;;;;;4187150;28;20230;-75
2022/08/08 07:05:38;;;;;;;4.17;1.40;;;17.10;79.20;;;;;;4179771;28;20206;-75
2022/08/08 07:07:59;;;;;;;2.47;1.40;;;17.20;78.60;;;;;;4188654;28;20205;-75
2022/08/08 07:10:04;;;;;;;2.47;1.20;;;17.20;77.60;;;;;;4189314;28;20876;-75
2022/08/08 07:12:08;;;;;;;2.43;1.20;;;17.30;76.30;;;;;;4194535;28;20662;-75
2022/08/08 07:14:17;;;;;;;2.33;1.30;;;17.30;76.40;;;;;;4184500;28;20584;-75
2022/08/08 07:16:23;;;;;;;1.87;1.20;;;17.40;75.40;;;;;;4190145;28;20735;-75
2022/08/08 07:18:36;;;;;;;1.50;1.20;;;17.40;74.40;;;;;;4186981;28;20688;-75
2022/08/08 07:20:42;;;;;;;1.50;1.30;;;17.50;73.40;;;;;;4190299;28;20238;-75
2022/08/08 07:22:53;;;;;;;4.30;1.23;;;17.50;73.30;;;;;;4186939;28;20237;-75
2022/08/08 07:25:00;;;;;;;1.73;0.97;;;17.60;72.40;;;;;;4186729;28;20348;-75
2022/08/08 07:27:06;;;;;;;2.23;1.30;;;17.70;72.70;;;;;;4187380;28;20305;-75
2022/08/08 07:29:08;;;;;;;3.73;1.37;;;17.70;72.50;;;;;;4188180;28;20256;-75
2022/08/08 07:31:12;;;;;;;2.43;1.53;;;17.80;70.60;;;;;;4179663;28;20950;-75
2022/08/08 07:33:15;;;;;;;3.97;1.43;;;17.80;70.70;;;;;;4188070;28;20644;-75
2022/08/08 07:35:17;;;;;;;2.87;1.30;;;17.90;70.80;;;;;;4187724;28;20209;-75
2022/08/08 07:37:22;;;;;;;2.83;1.40;;;17.90;70.70;;;;;;4187403;28;20547;-75
2022/08/08 07:39:24;;;;;;;1.97;1.33;;;18.00;70.80;;;;;;4185550;28;20214;-75
2022/08/08 07:41:27;;;;;;;3.37;1.40;;;18.10;70.60;;;;;;4179317;28;20683;-75
2022/08/08 07:43:33;;;;;;;3.63;1.40;;;18.10;69.60;;;;;;4182965;28;20223;-75
2022/08/08 07:45:34;;;;;;;1.70;1.13;;;18.20;70.10;;;;;;4187910;28;20309;-75
2022/08/08 07:47:38;;;;;;;2.60;1.23;;;18.20;69.60;;;;;;4188992;28;20261;-75
2022/08/08 07:49:40;;;;;;;1.57;1.20;;;18.30;69.60;;;;;;4189832;28;20206;-75
2022/08/08 07:51:43;;;;;;;1.90;1.10;;;18.30;69.80;;;;;;4191438;28;20199;-75
2022/08/08 07:53:49;;;;;;;1.10;1.00;;;18.30;70.50;;;;;;4188726;28;20245;-75
2022/08/08 07:55:54;;;;;;;2.17;1.00;;;18.40;69.60;;;;;;4181141;28;20210;-75
2022/08/08 07:58:13;;;;;;;2.93;1.20;;;18.50;69.60;;;;;;4183897;28;20219;-75
2022/08/08 08:00:16;;;;;;;1.27;1.10;;;18.50;69.10;;;;;;4186138;28;20293;-75
2022/08/08 08:02:22;;;;;;;2.33;1.40;;;18.60;69.10;;;;;;4179672;28;20289;-75
2022/08/08 08:04:32;;;;;;;1.40;1.30;;;18.60;69.40;;;;;;4189164;28;20211;-75
2022/08/08 08:06:34;;;;;;;1.80;1.00;;;18.70;68.30;;;;;;4188683;28;20249;-75
2022/08/08 08:08:39;;;;;;;1.90;1.10;;;18.70;68.20;;;;;;4179425;28;20626;-75
2022/08/08 08:10:42;;;;;;;3.23;1.47;;;18.80;66.90;;;;;;4190063;28;20225;-75
2022/08/08 08:12:51;;;;;;;1.70;1.10;;;18.80;66.20;;;;;;4188595;28;20228;-76
2022/08/08 08:14:58;;;;;;;2.07;1.20;;;18.90;64.60;;;;;;4189830;28;20210;-75
2022/08/08 08:17:01;;;;;;;1.20;1.10;;;18.90;62.10;;;;;;4179772;28;20238;-75
2022/08/08 08:19:05;;;;;;;1.77;1.30;;;19.00;61.80;;;;;;4186788;28;20294;-75
2022/08/08 08:21:09;;;;;;;2.37;1.50;;;19.10;60.70;;;;;;4184317;28;20848;-75
2022/08/08 08:23:11;;;;;;;2.10;1.40;;;19.10;59.70;;;;;;4190695;28;20849;-75
2022/08/08 08:25:13;;;;;;;2.03;1.20;;;19.20;59.50;;;;;;4184646;28;20234;-75
2022/08/08 08:27:15;;;;;;;2.47;1.17;;;19.30;60.00;;;;;;4188543;28;20227;-75
2022/08/08 08:29:17;;;;;;;1.33;1.10;;;19.30;58.90;;;;;;4191104;28;20205;-75
2022/08/08 08:31:19;;;;;;;2.30;1.33;;;19.40;57.90;;;;;;4184495;28;20232;-75
2022/08/08 08:33:21;;;;;;;3.00;1.30;;;19.50;55.80;;;;;;4184338;28;20233;-75
2022/08/08 08:35:23;;;;;;;1.93;1.17;;;19.50;55.40;;;;;;4185726;28;20920;-75
2022/08/08 08:37:27;;;;;;;1.63;1.10;;;19.70;55.80;;;;;;4184592;28;20627;-75
2022/08/08 08:39:28;;;;;;;2.60;1.40;;;19.70;56.00;;;;;;4187832;28;20215;-75
2022/08/08 08:41:32;;;;;;;3.03;1.33;;;19.70;56.10;;;;;;4178483;28;20223;-75
2022/08/08 08:43:35;;;;;;;2.70;1.00;;;19.80;55.50;;;;;;4184970;28;20241;-75
2022/08/08 08:45:37;;;;;;;1.50;1.27;;;19.90;54.90;;;;;;4182307;28;20228;-75
2022/08/08 08:47:43;;;;;;;3.10;1.13;;;20.00;53.90;;;;;;4188381;28;20258;-75
2022/08/08 08:49:45;;;;;;;2.03;1.30;;;20.00;53.40;;;;;;4186458;28;20219;-75
2022/08/08 08:51:49;;;;;;;2.67;1.30;;;20.10;52.00;;;;;;4185588;28;20444;-75
2022/08/08 08:53:54;;;;;;;1.77;1.30;;;20.20;51.30;;;;;;4186031;28;20203;-75
2022/08/08 08:55:57;;;;;;;2.23;1.20;;;20.30;51.40;;;;;;4187992;28;20760;-75
2022/08/08 08:58:00;;;;;;;1.47;1.10;;;20.40;51.20;;;;;;4186402;28;20218;-75
2022/08/08 09:00:03;;;;;;;1.20;1.00;;;20.40;51.10;;;;;;4188736;28;20602;-75
2022/08/08 09:02:06;;;;;;;1.73;1.10;;;20.50;51.60;;;;;;4185793;28;20845;-75
2022/08/08 09:04:13;;;;;;;1.73;1.27;;;20.60;50.60;;;;;;4178269;28;20242;-75
2022/08/08 09:06:19;;;;;;;1.60;1.20;;;20.70;50.40;;;;;;4180008;28;20711;-75
2022/08/08 09:08:26;;;;;;;3.73;1.27;;;20.70;50.10;;;;;;4182225;28;20212;-75
2022/08/08 09:10:31;;;;;;;5.73;1.60;;;20.80;50.00;;;;;;4186529;28;20566;-75
2022/08/08 09:12:35;;;;;;;1.77;1.13;;;20.90;48.70;;;;;;4185887;28;20272;-76
2022/08/08 09:14:39;;;;;;;1.87;1.10;;;21.00;48.20;;;;;;4187458;28;20217;-75
2022/08/08 09:16:42;;;;;;;1.27;1.13;;;21.00;48.10;;;;;;4184698;28;20215;-75
2022/08/08 09:18:44;;;;;;;1.43;1.00;;;21.10;47.80;;;;;;4177835;28;20204;-75
2022/08/08 09:20:47;;;;;;;1.43;1.10;;;21.10;47.50;;;;;;4186659;28;20241;-75
2022/08/08 09:22:49;;;;;;;2.07;1.20;;;21.20;46.20;;;;;;4187276;28;20264;-75
2022/08/08 09:24:52;;;;;;;2.70;1.30;;;21.30;43.60;;;;;;4188236;28;20954;-76
2022/08/08 09:27:01;;;;;;;2.43;1.30;;;21.50;43.80;;;;;;4186320;28;20233;-75
2022/08/08 09:29:06;;;;;;;2.47;1.40;;;21.50;43.30;;;;;;4204128;28;20208;-75
2022/08/08 09:31:15;;;;;;;1.63;1.30;;;21.70;43.20;;;;;;4183504;28;20210;-75
2022/08/08 09:33:18;;;;;;;2.40;1.40;;;21.70;42.80;;;;;;4184580;28;20246;-75
2022/08/08 09:35:24;;;;;;;2.13;1.30;;;21.90;42.30;;;;;;4192288;28;20675;-75
2022/08/08 09:37:29;;;;;;;1.30;1.10;;;21.90;42.60;;;;;;4181533;28;20210;-75
2022/08/08 09:39:42;;;;;;;2.77;1.20;;;22.00;42.60;;;;;;4186318;28;20230;-75
2022/08/08 09:41:50;;;;;;;2.23;1.40;;;22.10;41.50;;;;;;4187274;28;20263;-76
2022/08/08 09:43:58;;;;;;;1.53;1.20;;;22.10;40.90;;;;;;4184886;28;20214;-75
2022/08/08 09:46:03;;;;;;;2.07;1.40;;;22.20;41.40;;;;;;4186271;28;20244;-76
2022/08/08 09:48:06;;;;;;;1.33;1.20;;;22.30;41.60;;;;;;4183963;28;20747;-73
2022/08/08 09:50:10;;;;;;;1.20;1.10;;;22.30;41.70;;;;;;4185205;28;20216;-74
2022/08/08 09:52:19;;;;;;;1.60;1.10;;;22.40;41.50;;;;;;4185691;28;20235;-75
2022/08/08 09:54:25;;;;;;;1.27;0.97;;;22.50;41.60;;;;;;4186261;28;20202;-75
2022/08/08 09:56:33;;;;;;;1.60;1.13;;;22.50;41.00;;;;;;4186758;28;21065;-74
2022/08/08 09:58:39;;;;;;;1.10;1.00;;;22.60;40.70;;;;;;4184783;28;20211;-74
2022/08/08 10:00:45;;;;;;;1.27;1.17;;;22.70;40.60;;;;;;4185634;28;20209;-74
2022/08/08 10:02:48;;;;;;;1.43;1.13;;;22.80;39.30;;;;;;4189129;28;20263;-74
2022/08/08 10:04:50;;;;;;;1.23;1.10;;;22.90;39.10;;;;;;4184004;28;20219;-73
2022/08/08 10:06:53;;;;;;;1.37;1.20;;;23.00;38.90;;;;;;4188290;28;20231;-74
2022/08/08 10:08:55;;;;;;;2.57;1.33;;;23.10;38.50;;;;;;4188327;28;20230;-75
2022/08/08 10:10:58;;;;;;;2.30;1.27;;;23.20;38.30;;;;;;4183931;28;20209;-75
2022/08/08 10:13:01;;;;;;;1.20;1.10;;;23.30;37.80;;;;;;4184036;28;21018;-75
2022/08/08 10:15:06;;;;;;;1.53;1.20;;;23.30;37.80;;;;;;4177294;28;20247;-75
2022/08/08 10:17:10;;;;;;;1.10;1.00;;;23.40;37.80;;;;;;4186359;28;20213;-75
2022/08/08 10:19:12;;;;;;;2.70;1.13;;;23.50;37.50;;;;;;4186695;28;20245;-75
2022/08/08 10:21:18;;;;;;;1.97;1.40;;;23.60;37.10;;;;;;4185451;28;20585;-75
2022/08/08 10:23:26;;;;;;;1.47;1.20;;;23.70;36.90;;;;;;4183025;28;20248;-75
2022/08/08 10:25:28;;;;;;;1.10;1.00;;;23.80;36.80;;;;;;4185502;28;20224;-75
2022/08/08 10:27:41;;;;;;;1.30;1.13;;;23.90;36.80;;;;;;4186846;28;20228;-75
2022/08/08 10:29:53;;;;;;;1.23;1.10;;;24.00;37.10;;;;;;4191270;28;20517;-75
2022/08/08 10:34:20;;;;;;;1.23;1.07;;;24.20;36.80;;;;;;4183593;28;20279;-75
2022/08/08 10:36:24;;;;;;;1.33;0.93;;;24.30;36.50;;;;;;4188780;28;20255;-76
2022/08/08 10:38:30;;;;;;;2.07;1.00;;;24.30;36.20;;;;;;4189391;28;20655;-76
2022/08/08 10:40:33;;;;;;;1.87;1.00;;;24.40;36.30;;;;;;4189658;28;20196;-75
2022/08/08 10:42:36;;;;;;;1.53;1.07;;;24.50;36.00;;;;;;4190835;28;20267;-76
2022/08/08 10:44:39;;;;;;;0.97;0.93;;;24.50;36.10;;;;;;4191403;28;20685;-76
2022/08/08 10:46:41;;;;;;;1.47;1.10;;;24.60;35.50;;;;;;4186521;28;20877;-76
2022/08/08 10:48:45;;;;;;;1.77;1.20;;;24.60;35.70;;;;;;4186841;28;20262;-75
2022/08/08 10:50:49;;;;;;;1.90;1.30;;;24.70;35.70;;;;;;4192678;28;20584;-76
2022/08/08 10:52:51;;;;;;;4.17;1.37;;;24.80;35.20;;;;;;4189325;28;20230;-76
2022/08/08 10:54:54;;;;;;;1.70;1.10;;;24.80;34.80;;;;;;4185830;28;20322;-75
2022/08/08 10:56:57;;;;;;;1.20;1.10;;;24.90;34.60;;;;;;4183202;28;20210;-76
2022/08/08 10:59:00;;;;;;;2.07;1.40;;;25.00;35.20;;;;;;4191926;28;20317;-76
2022/08/08 11:01:08;;;;;;;2.97;1.70;;;25.20;34.30;;;;;;4188671;28;20210;-75
2022/08/08 11:03:12;;;;;;;2.40;1.60;;;25.30;34.00;;;;;;4188112;28;20229;-75
2022/08/08 11:05:14;;;;;;;2.20;1.27;;;25.40;33.70;;;;;;4187189;28;20711;-75
2022/08/08 11:07:29;;;;;;;2.27;1.23;;;25.50;33.90;;;;;;4187015;28;20214;-75
2022/08/08 11:09:31;;;;;;;2.17;1.30;;;25.60;34.00;;;;;;4191123;28;20598;-75
2022/08/08 11:11:38;;;;;;;2.80;1.40;;;25.70;33.10;;;;;;4183481;28;20301;-75
2022/08/08 11:13:42;;;;;;;1.33;1.10;;;25.90;33.20;;;;;;4185449;28;20685;-75
2022/08/08 11:15:44;;;;;;;2.67;1.30;;;26.00;33.00;;;;;;4183186;28;20213;-75
2022/08/08 11:17:47;;;;;;;2.23;1.33;;;26.10;33.50;;;;;;4184846;28;20221;-73
2022/08/08 11:19:51;;;;;;;2.57;1.20;;;26.30;32.60;;;;;;4189670;28;20203;-73